createdAt,value
2019-01-20T00:00:40.596Z,30.73
2019-01-20T00:03:08.925Z,29.07
2019-01-20T00:05:37.205Z,23.97
2019-01-20T00:08:05.624Z,29.03
2019-01-20T00:10:33.936Z,33.97
2019-01-20T00:13:02.217Z,25.37
2019-01-20T00:15:30.492Z,25.97
2019-01-20T00:17:58.820Z,28.27
2019-01-20T00:20:27.135Z,25.97
2019-01-20T00:22:55.531Z,29.30
2019-01-20T00:25:24.635Z,25.07
2019-01-20T00:27:52.993Z,28.37
2019-01-20T00:30:21.352Z,26.87
2019-01-20T00:32:49.802Z,36.93
2019-01-20T00:35:18.084Z,29.57
2019-01-20T00:37:46.455Z,25.20
2019-01-20T00:40:16.219Z,27.50
2019-01-20T00:42:44.500Z,29.50
2019-01-20T00:45:15.300Z,35.53
2019-01-20T00:47:43.617Z,31.07
2019-01-20T00:50:13.630Z,30.73
2019-01-20T00:52:41.978Z,27.97
2019-01-20T00:55:12.767Z,27.80
2019-01-20T00:57:41.409Z,27.70
2019-01-20T01:00:22.526Z,28.70
2019-01-20T01:02:50.808Z,32.80
2019-01-20T01:05:19.700Z,29.93
2019-01-20T01:07:48.020Z,24.40
2019-01-20T01:10:16.319Z,20.47
2019-01-20T01:12:44.606Z,25.70
2019-01-20T01:15:13.002Z,19.87
2019-01-20T01:17:41.293Z,21.77
2019-01-20T01:20:12.387Z,22.97
2019-01-20T01:22:40.710Z,22.60
2019-01-20T01:25:10.723Z,25.10
2019-01-20T01:27:39.760Z,27.13
2019-01-20T01:30:19.567Z,24.37
2019-01-20T01:32:47.848Z,19.00
2019-01-20T01:35:16.126Z,23.23
2019-01-20T01:37:44.450Z,26.63
2019-01-20T01:40:15.118Z,22.27
2019-01-20T01:42:43.530Z,22.93
2019-01-20T01:45:16.652Z,24.17
2019-01-20T01:47:44.935Z,27.17
2019-01-20T01:50:14.245Z,19.77
2019-01-20T01:52:42.558Z,21.30
2019-01-20T01:55:11.373Z,24.20
2019-01-20T01:57:39.662Z,23.47
2019-01-20T02:00:11.839Z,22.97
2019-01-20T02:02:40.113Z,18.10
2019-01-20T02:05:09.439Z,19.43
2019-01-20T02:07:37.763Z,19.27
2019-01-20T02:10:09.377Z,19.70
2019-01-20T02:12:37.657Z,19.67
2019-01-20T02:15:08.095Z,16.40
2019-01-20T02:17:36.381Z,18.73
2019-01-20T02:20:07.802Z,16.33
2019-01-20T02:22:36.115Z,19.73
2019-01-20T02:25:05.028Z,20.87
2019-01-20T02:27:33.304Z,20.13
2019-01-20T02:30:02.589Z,16.13
2019-01-20T02:32:30.859Z,16.23
2019-01-20T02:34:59.134Z,20.00
2019-01-20T02:37:27.475Z,19.17
2019-01-20T02:39:55.752Z,18.77
2019-01-20T02:42:24.029Z,19.87
2019-01-20T02:44:52.351Z,14.70
2019-01-20T02:47:20.628Z,13.17
2019-01-20T02:49:48.901Z,10.83
2019-01-20T02:52:17.210Z,14.47
2019-01-20T02:54:45.555Z,14.47
2019-01-20T02:57:13.899Z,13.17
2019-01-20T02:59:42.201Z,12.40
2019-01-20T03:02:10.549Z,12.60
2019-01-20T03:04:38.822Z,22.17
2019-01-20T03:07:07.133Z,16.73
2019-01-20T03:09:35.408Z,14.67
2019-01-20T03:12:03.887Z,13.10
2019-01-20T03:14:32.172Z,12.53
2019-01-20T03:17:00.449Z,12.63
2019-01-20T03:19:28.890Z,15.53
2019-01-20T03:21:57.197Z,10.90
2019-01-20T03:24:25.480Z,17.13
2019-01-20T03:26:53.858Z,12.03
2019-01-20T03:29:22.138Z,15.13
2019-01-20T03:31:51.182Z,12.20
2019-01-20T03:34:19.519Z,11.87
2019-01-20T03:36:47.826Z,10.97
2019-01-20T03:39:16.102Z,12.20
2019-01-20T03:41:44.374Z,14.57
2019-01-20T03:44:12.685Z,14.17
2019-01-20T03:46:40.962Z,12.23
2019-01-20T03:49:09.249Z,14.00
2019-01-20T03:51:37.571Z,11.73
2019-01-20T03:54:05.849Z,10.53
2019-01-20T03:56:34.125Z,12.53
2019-01-20T03:59:02.481Z,14.53
2019-01-20T04:01:30.789Z,14.53
2019-01-20T04:03:59.065Z,14.60
2019-01-20T04:06:27.408Z,11.37
2019-01-20T04:08:55.676Z,11.93
2019-01-20T04:11:23.953Z,13.60
2019-01-20T04:13:52.271Z,13.80
2019-01-20T04:16:20.615Z,16.57
2019-01-20T04:18:48.884Z,14.80
2019-01-20T04:21:17.208Z,14.53
2019-01-20T04:23:45.559Z,12.40
2019-01-20T04:26:13.836Z,11.47
2019-01-20T04:28:42.151Z,11.87
2019-01-20T04:31:10.428Z,13.40
2019-01-20T04:33:39.518Z,14.50
2019-01-20T04:36:07.913Z,23.43
2019-01-20T04:38:36.278Z,23.83
2019-01-20T04:41:04.627Z,24.97
2019-01-20T04:43:32.945Z,33.30
2019-01-20T04:46:01.241Z,29.17
2019-01-20T04:48:29.504Z,24.83
2019-01-20T04:50:58.041Z,15.50
2019-01-20T04:53:27.316Z,22.83
2019-01-20T04:55:55.652Z,28.93
2019-01-20T04:58:24.131Z,22.17
2019-01-20T05:00:52.424Z,27.53
2019-01-20T05:03:20.699Z,20.87
2019-01-20T05:05:49.012Z,23.90
2019-01-20T05:08:17.371Z,24.13
2019-01-20T05:10:45.717Z,17.13
2019-01-20T05:13:14.184Z,17.53
2019-01-20T05:15:42.728Z,14.13
2019-01-20T05:18:11.071Z,10.30
2019-01-20T05:20:39.442Z,9.27
2019-01-20T05:23:07.736Z,11.53
2019-01-20T05:25:36.025Z,10.67
2019-01-20T05:28:04.411Z,12.00
2019-01-20T05:30:32.686Z,12.50
2019-01-20T05:33:00.963Z,8.80
2019-01-20T05:35:30.131Z,12.20
2019-01-20T05:37:58.418Z,9.40
2019-01-20T05:40:27.006Z,10.13
2019-01-20T05:42:55.308Z,15.43
2019-01-20T05:45:24.799Z,21.50
2019-01-20T05:47:53.086Z,13.87
2019-01-20T05:50:21.394Z,9.73
2019-01-20T05:52:49.673Z,11.40
2019-01-20T05:55:17.943Z,11.17
2019-01-20T05:57:46.255Z,10.60
2019-01-20T06:00:17.166Z,7.83
2019-01-20T06:02:45.511Z,10.50
2019-01-20T06:05:13.845Z,9.07
2019-01-20T06:07:42.262Z,11.57
2019-01-20T06:10:12.470Z,9.43
2019-01-20T06:12:40.789Z,15.17
2019-01-20T06:15:17.180Z,17.60
2019-01-20T06:17:45.568Z,11.27
2019-01-20T06:20:14.264Z,14.20
2019-01-20T06:22:42.539Z,19.37
2019-01-20T06:25:10.853Z,9.83
2019-01-20T06:27:39.125Z,18.10
2019-01-20T06:30:10.671Z,14.13
2019-01-20T06:32:39.065Z,13.50
2019-01-20T06:35:07.481Z,11.10
2019-01-20T06:37:36.518Z,13.87
2019-01-20T06:40:05.974Z,15.63
2019-01-20T06:42:34.249Z,10.27
2019-01-20T06:45:02.593Z,12.77
2019-01-20T06:47:30.971Z,16.13
2019-01-20T06:49:59.274Z,13.40
2019-01-20T06:52:27.555Z,13.77
2019-01-20T06:54:55.863Z,15.70
2019-01-20T06:57:24.142Z,15.33
2019-01-20T06:59:52.483Z,16.77
2019-01-20T07:02:20.785Z,13.53
2019-01-20T07:04:49.069Z,16.17
2019-01-20T07:07:17.345Z,11.00
2019-01-20T07:09:45.660Z,13.03
2019-01-20T07:12:13.943Z,22.53
2019-01-20T07:14:42.221Z,14.23
2019-01-20T07:17:10.531Z,12.83
2019-01-20T07:19:38.808Z,14.20
2019-01-20T07:22:07.081Z,13.93
2019-01-20T07:24:35.465Z,20.07
2019-01-20T07:27:03.750Z,12.07
2019-01-20T07:29:32.039Z,16.00
2019-01-20T07:32:00.409Z,11.83
2019-01-20T07:34:28.758Z,17.63
2019-01-20T07:36:57.029Z,11.47
2019-01-20T07:39:26.233Z,14.70
2019-01-20T07:41:54.513Z,12.37
2019-01-20T07:44:22.800Z,12.27
2019-01-20T07:46:51.102Z,14.23
2019-01-20T07:49:19.377Z,15.57
2019-01-20T07:51:47.648Z,11.67
2019-01-20T07:54:16.107Z,10.77
2019-01-20T07:56:44.459Z,11.80
2019-01-20T07:59:12.731Z,8.33
2019-01-20T08:01:41.202Z,14.13
2019-01-20T08:04:09.486Z,15.10
2019-01-20T08:06:37.858Z,10.83
2019-01-20T08:09:07.558Z,9.50
2019-01-20T08:11:35.825Z,10.70
2019-01-20T08:14:04.168Z,12.73
2019-01-20T08:16:32.483Z,15.30
2019-01-20T08:19:00.972Z,27.23
2019-01-20T08:21:29.324Z,33.50
2019-01-20T08:23:57.653Z,24.13
2019-01-20T08:26:26.082Z,16.77
2019-01-20T08:28:54.519Z,22.03
2019-01-20T08:31:22.825Z,34.37
2019-01-20T08:33:51.123Z,28.27
2019-01-20T08:36:19.480Z,25.60
2019-01-20T08:38:47.874Z,17.73
2019-01-20T08:41:17.243Z,16.73
2019-01-20T08:43:45.588Z,20.90
2019-01-20T08:46:20.045Z,20.73
2019-01-20T08:48:48.537Z,10.80
2019-01-20T08:51:16.827Z,13.93
2019-01-20T08:53:45.343Z,11.23
2019-01-20T08:56:13.689Z,7.67
2019-01-20T08:58:42.174Z,15.67
2019-01-20T09:01:10.557Z,14.67
2019-01-20T09:03:39.205Z,18.87
2019-01-20T09:06:07.484Z,14.10
2019-01-20T09:08:36.006Z,16.40
2019-01-20T09:11:05.543Z,14.30
2019-01-20T09:13:39.649Z,8.17
2019-01-20T09:16:04.356Z,8.10
2019-01-20T09:18:32.705Z,13.23
2019-01-20T09:21:01.201Z,15.50
2019-01-20T09:23:29.601Z,21.77
2019-01-20T09:25:58.086Z,11.33
2019-01-20T09:28:26.501Z,16.23
2019-01-20T09:30:55.036Z,18.03
2019-01-20T09:33:24.629Z,12.93
2019-01-20T09:35:53.390Z,9.47
2019-01-20T09:38:21.912Z,9.60
2019-01-20T09:40:50.407Z,20.50
2019-01-20T09:43:21.342Z,17.27
2019-01-20T09:45:50.844Z,13.77
2019-01-20T09:48:19.340Z,15.37
2019-01-20T09:50:47.827Z,11.20
2019-01-20T09:53:16.341Z,11.03
2019-01-20T09:55:44.833Z,32.20
2019-01-20T09:58:13.317Z,19.27
2019-01-20T10:00:41.838Z,18.43
2019-01-20T10:03:16.174Z,25.00
2019-01-20T10:05:40.548Z,15.03
2019-01-20T10:08:09.070Z,16.00
2019-01-20T10:10:37.574Z,11.50
2019-01-20T10:13:06.060Z,14.33
2019-01-20T10:15:34.580Z,14.37
2019-01-20T10:18:03.074Z,13.07
2019-01-20T10:20:32.962Z,11.37
2019-01-20T10:23:01.497Z,11.20
2019-01-20T10:25:29.991Z,15.17
2019-01-20T10:27:58.478Z,18.03
2019-01-20T10:30:29.582Z,12.93
2019-01-20T10:32:58.064Z,13.60
2019-01-20T10:35:28.114Z,12.33
2019-01-20T10:37:58.203Z,14.70
2019-01-20T10:40:26.696Z,11.93
2019-01-20T10:42:55.172Z,9.30
2019-01-20T10:45:24.585Z,11.50
2019-01-20T10:47:53.080Z,15.60
2019-01-20T10:50:21.631Z,19.13
2019-01-20T10:52:50.148Z,12.73
2019-01-20T10:55:18.637Z,9.23
2019-01-20T10:57:47.118Z,13.83
2019-01-20T11:00:21.511Z,8.87
2019-01-20T11:02:49.996Z,9.10
2019-01-20T11:05:24.905Z,8.77
2019-01-20T11:07:48.718Z,12.20
2019-01-20T11:10:17.205Z,15.77
2019-01-20T11:12:47.260Z,13.73
2019-01-20T11:15:16.884Z,12.87
2019-01-20T11:17:45.401Z,11.43
2019-01-20T11:20:21.926Z,13.60
2019-01-20T11:22:50.408Z,29.07
2019-01-20T11:25:24.939Z,20.77
2019-01-20T11:27:53.428Z,25.90
2019-01-20T11:30:21.931Z,14.77
2019-01-20T11:32:50.421Z,15.97
2019-01-20T11:35:19.838Z,10.77
2019-01-20T11:37:48.346Z,20.90
2019-01-20T11:40:16.824Z,13.10
2019-01-20T11:42:45.356Z,11.80
2019-01-20T11:45:22.872Z,18.07
2019-01-20T11:47:51.389Z,18.93
2019-01-20T11:50:19.881Z,17.37
2019-01-20T11:52:48.380Z,11.23
2019-01-20T11:55:21.475Z,14.40
2019-01-20T11:57:49.957Z,16.37
2019-01-20T12:00:21.095Z,10.77
2019-01-20T12:02:49.640Z,21.30
2019-01-20T12:05:18.620Z,13.80
2019-01-20T12:07:47.114Z,11.60
2019-01-20T12:10:15.645Z,11.77
2019-01-20T12:12:45.696Z,13.97
2019-01-20T12:15:15.480Z,19.77
2019-01-20T12:17:45.584Z,15.70
2019-01-20T12:20:17.035Z,16.90
2019-01-20T12:22:45.515Z,14.53
2019-01-20T12:25:18.736Z,13.40
2019-01-20T12:27:47.234Z,13.70
2019-01-20T12:30:24.262Z,14.43
2019-01-20T12:32:52.746Z,16.40
2019-01-20T12:35:21.236Z,14.80
2019-01-20T12:37:49.757Z,14.13
2019-01-20T12:40:21.523Z,15.80
2019-01-20T12:42:50.004Z,12.20
2019-01-20T12:45:18.530Z,13.33
2019-01-20T12:47:47.020Z,11.53
2019-01-20T12:50:17.329Z,14.97
2019-01-20T12:52:47.409Z,12.53
2019-01-20T12:55:16.795Z,14.77
2019-01-20T12:57:46.844Z,17.13
2019-01-20T13:00:17.271Z,20.50
2019-01-20T13:02:45.755Z,24.87
2019-01-20T13:05:14.240Z,13.10
2019-01-20T13:07:42.761Z,13.77
2019-01-20T13:10:13.804Z,19.10
2019-01-20T13:12:42.295Z,18.97
2019-01-20T13:15:13.479Z,18.90
2019-01-20T13:17:41.964Z,15.53
2019-01-20T13:20:18.321Z,17.10
2019-01-20T13:22:46.813Z,17.73
2019-01-20T13:25:23.215Z,15.83
2019-01-20T13:27:51.705Z,16.90
2019-01-20T13:30:22.098Z,14.13
2019-01-20T13:32:50.608Z,16.70
2019-01-20T13:35:20.015Z,22.80
2019-01-20T13:37:50.798Z,26.13
2019-01-20T13:40:31.501Z,26.50
2019-01-20T13:42:59.994Z,25.17
2019-01-20T13:45:28.485Z,26.23
2019-01-20T13:47:57.005Z,19.30
2019-01-20T13:50:25.497Z,29.73
2019-01-20T13:52:53.991Z,22.20
2019-01-20T13:55:22.513Z,29.17
2019-01-20T13:57:50.995Z,33.57
2019-01-20T14:00:26.171Z,42.50
2019-01-20T14:02:54.698Z,41.73
2019-01-20T14:05:23.192Z,42.17
2019-01-20T14:07:51.680Z,39.87
2019-01-20T14:10:25.300Z,45.67
2019-01-20T14:12:53.792Z,46.17
2019-01-20T14:15:22.279Z,44.97
2019-01-20T14:17:50.798Z,42.47
2019-01-20T14:20:23.015Z,36.87
2019-01-20T14:22:51.508Z,38.60
2019-01-20T14:25:22.326Z,37.10
2019-01-20T14:27:50.808Z,57.67
2019-01-20T14:30:27.694Z,51.07
2019-01-20T14:32:56.183Z,53.43
2019-01-20T14:35:24.670Z,60.10
2019-01-20T14:37:53.207Z,60.50
2019-01-20T14:40:21.694Z,57.13
2019-01-20T14:42:50.887Z,54.30
2019-01-20T14:45:19.714Z,52.07
2019-01-20T14:47:48.292Z,44.53
2019-01-20T14:50:21.856Z,37.00
2019-01-20T14:52:50.420Z,38.50
2019-01-20T14:55:18.974Z,46.10
2019-01-20T14:57:47.473Z,52.43
2019-01-20T15:00:27.754Z,46.33
2019-01-20T15:02:56.288Z,44.50
2019-01-20T15:05:24.779Z,37.33
2019-01-20T15:07:53.380Z,36.07
2019-01-20T15:10:21.881Z,38.30
2019-01-20T15:12:50.481Z,37.20
2019-01-20T15:15:25.046Z,36.50
2019-01-20T15:17:53.532Z,32.67
2019-01-20T15:20:22.032Z,31.27
2019-01-20T15:22:50.549Z,25.97
2019-01-20T15:25:20.044Z,24.67
2019-01-20T15:27:48.930Z,22.23
2019-01-20T15:30:25.819Z,24.53
2019-01-20T15:32:54.419Z,21.10
2019-01-20T15:35:22.918Z,26.30
2019-01-20T15:37:51.450Z,27.10
2019-01-20T15:40:21.444Z,26.27
2019-01-20T15:42:49.930Z,31.07
2019-01-20T15:45:22.621Z,25.23
2019-01-20T15:47:52.559Z,28.07
2019-01-20T15:50:29.794Z,36.67
2019-01-20T15:52:58.289Z,52.50
2019-01-20T15:55:26.794Z,122.37
2019-01-20T15:57:55.340Z,117.30
2019-01-20T16:00:31.330Z,108.40
2019-01-20T16:02:59.878Z,54.37
2019-01-20T16:05:28.767Z,82.43
2019-01-20T16:07:57.283Z,53.43
2019-01-20T16:10:25.807Z,50.07
2019-01-20T16:12:54.304Z,43.03
2019-01-20T16:15:25.481Z,47.50
2019-01-20T16:17:54.911Z,43.50
2019-01-20T16:20:26.871Z,37.50
2019-01-20T16:22:55.395Z,44.77
2019-01-20T16:25:26.558Z,31.23
2019-01-20T16:27:55.057Z,28.20
2019-01-20T16:30:25.946Z,28.27
2019-01-20T16:32:54.475Z,37.27
2019-01-20T16:35:23.767Z,40.50
2019-01-20T16:37:52.269Z,44.23
2019-01-20T16:40:22.795Z,48.90
2019-01-20T16:42:54.034Z,42.40
2019-01-20T16:45:32.805Z,42.57
2019-01-20T16:48:01.916Z,34.33
2019-01-20T16:50:30.412Z,32.63
2019-01-20T16:53:00.639Z,31.87
2019-01-20T16:55:29.132Z,25.10
2019-01-20T16:57:58.551Z,27.30
2019-01-20T17:00:29.375Z,28.17
2019-01-20T17:02:57.859Z,34.10
2019-01-20T17:05:27.137Z,22.90
2019-01-20T17:07:55.762Z,30.13
2019-01-20T17:10:27.117Z,39.43
2019-01-20T17:12:55.616Z,31.87
2019-01-20T17:15:39.391Z,24.70
2019-01-20T17:18:03.159Z,36.70
2019-01-20T17:20:31.644Z,25.50
2019-01-20T17:23:00.167Z,29.03
2019-01-20T17:25:28.652Z,29.63
2019-01-20T17:27:57.145Z,27.40
2019-01-20T17:30:33.809Z,22.23
2019-01-20T17:33:02.569Z,26.20
2019-01-20T17:35:33.781Z,23.60
2019-01-20T17:38:02.317Z,26.57
2019-01-20T17:40:30.822Z,26.20
2019-01-20T17:43:00.888Z,26.30
2019-01-20T17:45:35.116Z,30.40
2019-01-20T17:48:03.612Z,36.90
2019-01-20T17:50:37.075Z,34.10
2019-01-20T17:53:07.669Z,46.20
2019-01-20T17:55:36.174Z,37.77
2019-01-20T17:58:04.981Z,36.60
2019-01-20T18:00:36.874Z,31.70
2019-01-20T18:03:06.166Z,34.90
2019-01-20T18:05:34.653Z,26.73
2019-01-20T18:08:03.302Z,33.03
2019-01-20T18:10:31.777Z,36.70
2019-01-20T18:13:00.286Z,41.60
2019-01-20T18:15:30.489Z,35.13
2019-01-20T18:17:59.004Z,29.93
2019-01-20T18:20:31.772Z,34.20
2019-01-20T18:23:03.052Z,44.13
2019-01-20T18:25:31.563Z,51.77
2019-01-20T18:28:00.055Z,36.47
2019-01-20T18:30:30.109Z,38.27
2019-01-20T18:32:58.610Z,65.47
2019-01-20T18:35:28.774Z,57.87
2019-01-20T18:37:57.310Z,46.43
2019-01-20T18:40:26.495Z,94.57
2019-01-20T18:42:57.688Z,73.90
2019-01-20T18:45:31.108Z,61.13
2019-01-20T18:48:01.191Z,42.93
2019-01-20T18:50:34.997Z,45.77
2019-01-20T18:53:05.066Z,41.80
2019-01-20T18:55:35.129Z,43.50
2019-01-20T18:58:03.646Z,44.00
2019-01-20T19:00:37.629Z,46.50
2019-01-20T19:03:07.005Z,45.13
2019-01-20T19:05:35.539Z,47.60
2019-01-20T19:08:04.055Z,42.40
2019-01-20T19:10:32.556Z,45.90
2019-01-20T19:13:01.091Z,43.97
2019-01-20T19:15:29.588Z,42.93
2019-01-20T19:17:58.119Z,49.70
2019-01-20T19:20:28.538Z,45.33
2019-01-20T19:22:57.938Z,44.03
2019-01-20T19:25:26.427Z,44.13
2019-01-20T19:27:54.965Z,44.43
2019-01-20T19:30:28.858Z,40.43
2019-01-20T19:32:57.355Z,44.53
2019-01-20T19:35:28.699Z,36.27
2019-01-20T19:37:57.200Z,38.57
2019-01-20T19:40:25.692Z,38.63
2019-01-20T19:42:54.233Z,34.77
2019-01-20T19:45:22.738Z,34.03
2019-01-20T19:47:51.238Z,39.77
2019-01-20T19:50:19.800Z,41.43
2019-01-20T19:52:48.271Z,36.30
2019-01-20T19:55:19.882Z,32.93
2019-01-20T19:57:48.423Z,29.30
2019-01-20T20:00:22.098Z,25.97
2019-01-20T20:02:50.601Z,30.70
2019-01-20T20:05:22.432Z,33.57
2019-01-20T20:07:51.635Z,30.90
2019-01-20T20:10:25.765Z,32.77
2019-01-20T20:12:55.078Z,29.90
2019-01-20T20:15:25.836Z,34.50
2019-01-20T20:17:54.368Z,33.57
2019-01-20T20:20:24.436Z,30.70
2019-01-20T20:22:52.924Z,27.87
2019-01-20T20:25:23.065Z,59.13
2019-01-20T20:27:51.953Z,53.37
2019-01-20T20:30:23.201Z,48.43
2019-01-20T20:32:51.726Z,48.67
2019-01-20T20:35:20.285Z,60.40
2019-01-20T20:37:48.741Z,49.73
2019-01-20T20:40:19.080Z,63.40
2019-01-20T20:42:47.580Z,55.37
2019-01-20T20:45:20.842Z,78.47
2019-01-20T20:47:49.375Z,71.30
2019-01-20T20:50:18.463Z,76.97
2019-01-20T20:52:46.965Z,96.33
2019-01-20T20:55:15.502Z,70.13
2019-01-20T20:57:45.556Z,93.23
2019-01-20T21:00:17.098Z,90.37
2019-01-20T21:02:45.641Z,138.80
2019-01-20T21:05:14.143Z,155.20
2019-01-20T21:07:42.770Z,146.37
2019-01-20T21:10:14.011Z,136.87
2019-01-20T21:12:45.295Z,143.53
2019-01-20T21:15:15.944Z,112.57
2019-01-20T21:17:48.437Z,85.57
2019-01-20T21:20:23.934Z,76.90
2019-01-20T21:22:52.472Z,79.33
2019-01-20T21:25:22.549Z,53.30
2019-01-20T21:27:51.054Z,58.83
2019-01-20T21:30:27.342Z,65.37
2019-01-20T21:32:55.845Z,76.23
2019-01-20T21:35:24.330Z,73.57
2019-01-20T21:37:52.862Z,67.57
2019-01-20T21:40:21.373Z,70.00
2019-01-20T21:42:49.874Z,64.77
2019-01-20T21:45:18.607Z,73.57
2019-01-20T21:47:47.096Z,72.00
2019-01-20T21:50:29.831Z,73.63
2019-01-20T21:52:58.334Z,70.20
2019-01-20T21:55:26.824Z,70.23
2019-01-20T21:57:55.365Z,131.27
2019-01-20T22:00:28.513Z,121.43
2019-01-20T22:02:57.021Z,86.23
2019-01-20T22:05:25.549Z,90.87
2019-01-20T22:07:54.913Z,86.10
2019-01-20T22:10:24.258Z,85.63
2019-01-20T22:12:52.742Z,79.53
2019-01-20T22:15:21.265Z,74.97
2019-01-20T22:17:49.751Z,83.80
2019-01-20T22:20:21.413Z,83.70
2019-01-20T22:22:49.997Z,79.73
2019-01-20T22:25:18.498Z,68.40
2019-01-20T22:30:23.260Z,71.57
2019-01-20T22:32:51.624Z,72.27
2019-01-20T22:35:19.972Z,53.23
2019-01-20T22:37:48.285Z,59.77
2019-01-20T22:40:18.112Z,56.03
2019-01-20T22:42:46.464Z,42.23
2019-01-20T22:45:17.026Z,48.73
2019-01-20T22:47:45.308Z,40.13
2019-01-20T22:50:14.058Z,55.83
2019-01-20T22:52:42.488Z,48.50
2019-01-20T22:55:15.331Z,50.37
2019-01-20T22:57:43.619Z,48.73
2019-01-20T23:00:49.053Z,52.03
2019-01-20T23:03:17.339Z,56.43
2019-01-20T23:05:45.799Z,75.83
2019-01-20T23:08:14.153Z,50.20
2019-01-20T23:10:43.269Z,34.97
2019-01-20T23:13:11.595Z,33.30
2019-01-20T23:15:39.960Z,35.40
2019-01-20T23:18:08.247Z,41.03
2019-01-20T23:20:36.520Z,42.83
2019-01-20T23:23:04.838Z,44.03
2019-01-20T23:25:33.120Z,46.17
2019-01-20T23:28:01.399Z,39.53
2019-01-20T23:30:29.711Z,51.97
2019-01-20T23:32:57.992Z,41.23
2019-01-20T23:35:26.265Z,38.87
2019-01-20T23:37:54.583Z,56.23
2019-01-20T23:40:22.865Z,35.10
2019-01-20T23:42:51.150Z,41.83
2019-01-20T23:45:19.466Z,44.70
2019-01-20T23:47:47.778Z,49.37
2019-01-20T23:50:17.161Z,38.83
2019-01-20T23:52:45.543Z,41.40
2019-01-20T23:55:13.915Z,27.73
2019-01-20T23:57:42.195Z,31.30
